createdAt,value
2023-03-01T00:01:53.286Z,38.88
2023-03-01T00:04:21.950Z,35.35
2023-03-01T00:06:50.810Z,35.47
2023-03-01T00:09:19.721Z,33.80
2023-03-01T00:11:48.671Z,29.17
2023-03-01T00:14:20.581Z,24.65
2023-03-01T00:16:49.555Z,25.42
2023-03-01T00:19:20.914Z,23.95
2023-03-01T00:21:50.398Z,31.02
2023-03-01T00:24:19.008Z,22.02
2023-03-01T00:26:48.424Z,24.75
2023-03-01T00:29:17.029Z,22.50
2023-03-01T00:31:45.759Z,23.08
2023-03-01T00:34:14.339Z,22.98
2023-03-01T00:36:43.298Z,24.30
2023-03-01T00:39:17.331Z,25.33
2023-03-01T00:41:46.471Z,30.25
2023-03-01T00:44:15.060Z,29.65
2023-03-01T00:46:43.847Z,35.15
2023-03-01T00:49:12.620Z,30.35
2023-03-01T00:51:43.259Z,38.25
2023-03-01T00:54:12.387Z,34.25
2023-03-01T00:56:40.991Z,37.95
2023-03-01T00:59:09.765Z,30.67
2023-03-01T01:01:38.678Z,43.85
2023-03-01T01:04:11.050Z,38.10
2023-03-01T01:06:46.375Z,29.58
2023-03-01T01:09:21.129Z,27.58
2023-03-01T01:11:53.290Z,27.50
2023-03-01T01:14:23.524Z,33.15
2023-03-01T01:16:53.046Z,32.38
2023-03-01T01:19:23.383Z,43.33
2023-03-01T01:21:52.968Z,33.92
2023-03-01T01:24:22.024Z,39.63
2023-03-01T01:26:51.972Z,30.33
2023-03-01T01:29:21.370Z,29.65
2023-03-01T01:31:51.285Z,34.15
2023-03-01T01:34:22.901Z,28.35
2023-03-01T01:36:56.001Z,33.25
2023-03-01T01:39:25.907Z,26.90
2023-03-01T01:41:54.836Z,26.52
2023-03-01T01:44:27.340Z,24.13
2023-03-01T01:47:03.986Z,21.90
2023-03-01T01:49:36.140Z,28.63
2023-03-01T01:52:12.796Z,54.65
2023-03-01T01:54:51.819Z,31.27
2023-03-01T01:57:26.391Z,24.48
2023-03-01T02:00:02.489Z,21.40
2023-03-01T02:02:45.174Z,28.75
2023-03-01T02:07:49.013Z,28.35
2023-03-01T02:10:23.820Z,29.92
2023-03-01T02:12:54.431Z,30.27
2023-03-01T02:15:24.086Z,21.73
2023-03-01T02:17:54.159Z,21.17
2023-03-01T02:20:42.895Z,25.88
2023-03-01T02:23:11.949Z,22.13
2023-03-01T02:25:55.732Z,26.58
2023-03-01T02:28:46.182Z,27.67
2023-03-01T02:31:37.984Z,29.35
2023-03-01T02:34:08.714Z,51.33
2023-03-01T02:36:47.924Z,25.10
2023-03-01T02:39:23.288Z,66.53
2023-03-01T02:41:55.536Z,22.25
2023-03-01T02:46:58.377Z,26.88
2023-03-01T02:49:34.088Z,30.50
2023-03-01T02:52:41.222Z,28.90
2023-03-01T02:55:14.815Z,26.83
2023-03-01T02:57:46.325Z,28.67
2023-03-01T03:00:23.710Z,29.43
2023-03-01T03:02:54.484Z,24.73
2023-03-01T03:05:30.432Z,28.35
2023-03-01T03:08:02.168Z,26.30
2023-03-01T03:10:41.333Z,26.58
2023-03-01T03:13:13.673Z,25.17
2023-03-01T03:15:45.101Z,23.20
2023-03-01T03:18:17.603Z,28.60
2023-03-01T03:20:47.442Z,22.60
2023-03-01T03:23:16.250Z,25.67
2023-03-01T03:25:45.191Z,23.02
2023-03-01T03:28:13.720Z,23.52
2023-03-01T03:30:43.696Z,20.83
2023-03-01T03:33:14.120Z,21.10
2023-03-01T03:35:49.509Z,30.73
2023-03-01T03:38:21.628Z,23.92
2023-03-01T03:40:53.060Z,25.88
2023-03-01T03:43:24.823Z,20.35
2023-03-01T03:45:54.147Z,25.20
2023-03-01T03:48:23.051Z,22.45
2023-03-01T03:50:55.713Z,22.45
2023-03-01T03:55:53.654Z,18.60
2023-03-01T03:58:24.489Z,17.50
2023-03-01T04:00:59.095Z,17.40
2023-03-01T04:03:29.669Z,18.52
2023-03-01T04:06:00.972Z,23.60
2023-03-01T04:08:30.696Z,17.33
2023-03-01T04:11:22.927Z,23.67
2023-03-01T04:13:52.890Z,18.35
2023-03-01T04:16:21.658Z,18.80
2023-03-01T04:18:50.516Z,21.75
2023-03-01T04:21:19.421Z,16.13
2023-03-01T04:23:48.322Z,21.13
2023-03-01T04:26:16.953Z,18.80
2023-03-01T04:28:47.669Z,16.85
2023-03-01T04:31:20.109Z,23.45
2023-03-01T04:33:50.568Z,23.52
2023-03-01T04:36:21.200Z,20.95
2023-03-01T04:38:50.791Z,18.40
2023-03-01T04:41:22.906Z,20.15
2023-03-01T04:43:52.348Z,23.42
2023-03-01T04:46:30.166Z,17.13
2023-03-01T04:48:59.535Z,35.53
2023-03-01T04:51:28.122Z,32.92
2023-03-01T04:53:57.367Z,33.88
2023-03-01T04:56:26.060Z,34.85
2023-03-01T04:58:57.974Z,29.40
2023-03-01T05:01:26.806Z,29.00
2023-03-01T05:03:55.408Z,30.15
2023-03-01T05:06:24.409Z,31.65
2023-03-01T05:08:53.006Z,28.77
2023-03-01T05:11:22.045Z,27.05
2023-03-01T05:13:51.843Z,32.65
2023-03-01T05:16:21.891Z,32.50
2023-03-01T05:18:52.252Z,30.67
2023-03-01T05:21:21.066Z,34.30
2023-03-01T05:23:49.904Z,47.45
2023-03-01T05:26:39.417Z,28.13
2023-03-01T05:29:08.597Z,46.05
2023-03-01T05:31:37.120Z,38.05
2023-03-01T05:34:06.592Z,26.52
2023-03-01T05:36:36.600Z,37.30
2023-03-01T05:39:05.536Z,36.53
2023-03-01T05:41:34.056Z,34.38
2023-03-01T05:44:02.927Z,29.67
2023-03-01T05:46:31.736Z,22.98
2023-03-01T05:49:02.035Z,31.08
2023-03-01T05:51:31.264Z,61.50
2023-03-01T05:54:00.049Z,50.10
2023-03-01T05:56:28.913Z,53.13
2023-03-01T05:58:57.938Z,45.47
2023-03-01T06:01:26.511Z,21.27
2023-03-01T06:03:55.312Z,40.28
2023-03-01T06:06:23.910Z,24.90
2023-03-01T06:08:53.771Z,28.50
2023-03-01T06:11:23.504Z,22.63
2023-03-01T06:13:52.475Z,21.60
2023-03-01T06:16:21.121Z,132.23
2023-03-01T06:18:49.978Z,40.90
2023-03-01T06:21:18.578Z,68.45
2023-03-01T06:23:47.492Z,92.22
2023-03-01T06:26:16.110Z,84.22
2023-03-01T06:28:47.969Z,82.30
2023-03-01T06:31:17.155Z,157.65
2023-03-01T06:33:46.532Z,57.08
2023-03-01T06:36:15.361Z,13.75
2023-03-01T06:38:45.010Z,33.67
2023-03-01T06:41:13.769Z,23.10
2023-03-01T06:43:42.463Z,13.88
2023-03-01T06:46:11.196Z,10.18
2023-03-01T06:48:40.072Z,29.13
2023-03-01T06:51:08.907Z,11.27
2023-03-01T06:53:37.447Z,10.75
2023-03-01T06:56:06.512Z,8.60
2023-03-01T06:58:35.163Z,16.80
2023-03-01T07:01:08.636Z,19.40
2023-03-01T07:03:37.489Z,27.58
2023-03-01T07:06:06.237Z,37.35
2023-03-01T07:08:34.974Z,29.55
2023-03-01T07:11:05.477Z,27.77
2023-03-01T07:13:34.771Z,15.68
2023-03-01T07:16:03.425Z,13.48
2023-03-01T07:18:32.283Z,14.88
2023-03-01T07:21:05.557Z,16.02
2023-03-01T07:23:34.554Z,19.90
2023-03-01T07:26:03.477Z,16.20
2023-03-01T07:28:32.618Z,15.10
2023-03-01T07:31:05.577Z,15.95
2023-03-01T07:33:35.004Z,12.70
2023-03-01T07:36:05.495Z,12.85
2023-03-01T07:38:34.643Z,14.82
2023-03-01T07:41:05.231Z,15.15
2023-03-01T07:43:34.272Z,14.27
2023-03-01T07:46:04.197Z,14.90
2023-03-01T07:48:34.523Z,13.93
2023-03-01T07:51:06.251Z,15.63
2023-03-01T07:53:38.730Z,10.50
2023-03-01T07:58:41.949Z,13.10
2023-03-01T08:01:14.280Z,9.63
2023-03-01T08:03:44.253Z,13.82
2023-03-01T08:06:14.995Z,21.73
2023-03-01T08:08:44.149Z,20.85
2023-03-01T08:11:15.204Z,20.92
2023-03-01T08:13:45.089Z,17.15
2023-03-01T08:16:16.375Z,16.67
2023-03-01T08:18:45.789Z,10.57
2023-03-01T08:21:19.089Z,11.55
2023-03-01T08:23:48.249Z,12.05
2023-03-01T08:26:22.445Z,9.02
2023-03-01T08:28:52.194Z,10.85
2023-03-01T08:31:26.709Z,9.90
2023-03-01T08:33:58.195Z,17.30
2023-03-01T08:36:29.649Z,8.13
2023-03-01T08:38:59.200Z,16.13
2023-03-01T08:41:28.146Z,9.52
2023-03-01T08:44:00.599Z,15.93
2023-03-01T08:46:31.763Z,10.50
2023-03-01T08:49:01.261Z,6.35
2023-03-01T08:51:31.019Z,11.95
2023-03-01T08:53:59.939Z,9.95
2023-03-01T08:56:28.960Z,11.50
2023-03-01T08:58:57.918Z,7.10
2023-03-01T09:01:27.087Z,12.00
2023-03-01T09:03:56.300Z,11.23
2023-03-01T09:06:25.552Z,6.13
2023-03-01T09:08:54.621Z,9.98
2023-03-01T09:11:24.627Z,10.68
2023-03-01T09:13:53.841Z,10.50
2023-03-01T09:16:24.394Z,14.15
2023-03-01T09:18:55.072Z,10.93
2023-03-01T09:21:39.064Z,13.65
2023-03-01T09:24:15.650Z,16.88
2023-03-01T09:26:45.295Z,21.40
2023-03-01T09:29:14.204Z,47.38
2023-03-01T09:31:44.285Z,10.82
2023-03-01T09:34:13.172Z,13.48
2023-03-01T09:36:42.153Z,8.13
2023-03-01T09:39:13.104Z,10.82
2023-03-01T09:42:01.730Z,28.50
2023-03-01T09:44:54.033Z,16.65
2023-03-01T09:47:25.875Z,22.58
2023-03-01T09:50:07.095Z,16.90
2023-03-01T09:52:44.089Z,10.02
2023-03-01T09:55:19.951Z,28.45
2023-03-01T09:58:11.455Z,14.77
2023-03-01T10:00:50.058Z,27.00
2023-03-01T10:03:34.076Z,26.58
2023-03-01T10:06:06.891Z,12.98
2023-03-01T10:08:43.580Z,9.85
2023-03-01T10:11:22.634Z,10.32
2023-03-01T10:14:05.681Z,12.55
2023-03-01T10:17:09.679Z,13.97
2023-03-01T10:19:45.296Z,12.75
2023-03-01T10:22:20.115Z,8.70
2023-03-01T10:24:49.674Z,10.18
2023-03-01T10:27:46.450Z,12.32
2023-03-01T10:30:41.234Z,9.80
2023-03-01T10:33:21.866Z,15.55
2023-03-01T10:35:51.133Z,14.35
2023-03-01T10:38:24.617Z,11.68
2023-03-01T10:41:01.344Z,8.55
2023-03-01T10:43:50.365Z,13.15
2023-03-01T10:46:35.664Z,13.32
2023-03-01T10:49:16.563Z,20.45
2023-03-01T10:51:48.244Z,18.65
2023-03-01T10:54:35.285Z,11.37
2023-03-01T10:57:06.359Z,10.57
2023-03-01T10:59:37.600Z,17.30
2023-03-01T11:02:23.794Z,15.32
2023-03-01T11:05:00.606Z,13.40
2023-03-01T11:07:30.527Z,10.32
2023-03-01T11:09:59.391Z,12.88
2023-03-01T11:12:31.579Z,14.23
2023-03-01T11:15:00.802Z,23.02
2023-03-01T11:17:41.650Z,17.45
2023-03-01T11:20:16.938Z,7.90
2023-03-01T11:23:03.680Z,7.70
2023-03-01T11:25:39.418Z,12.68
2023-03-01T11:28:13.129Z,14.93
2023-03-01T11:31:07.731Z,24.17
2023-03-01T11:33:58.437Z,16.30
2023-03-01T11:36:33.404Z,21.88
2023-03-01T11:39:19.825Z,19.17
2023-03-01T11:41:54.973Z,17.48
2023-03-01T11:44:30.675Z,24.85
2023-03-01T11:46:59.603Z,19.95
2023-03-01T11:50:00.059Z,17.10
2023-03-01T11:52:29.025Z,13.88
2023-03-01T11:55:39.827Z,24.88
2023-03-01T11:58:43.617Z,27.30
2023-03-01T12:01:15.460Z,20.25
2023-03-01T12:04:12.589Z,19.27
2023-03-01T12:06:59.429Z,30.55
2023-03-01T12:09:33.932Z,30.70
2023-03-01T12:12:29.321Z,21.90
2023-03-01T12:15:31.828Z,25.90
2023-03-01T12:18:07.017Z,16.77
2023-03-01T12:20:45.602Z,21.52
2023-03-01T12:23:35.448Z,23.55
2023-03-01T12:26:09.770Z,24.52
2023-03-01T12:29:08.093Z,28.02
2023-03-01T12:31:59.014Z,28.48
2023-03-01T12:34:51.726Z,19.48
2023-03-01T12:37:39.443Z,20.80
2023-03-01T12:40:14.791Z,22.15
2023-03-01T12:42:53.870Z,19.77
2023-03-01T12:45:45.784Z,22.42
2023-03-01T12:48:37.796Z,29.67
2023-03-01T12:51:16.360Z,37.00
2023-03-01T12:53:55.688Z,39.00
2023-03-01T12:56:27.879Z,33.58
2023-03-01T12:59:18.160Z,39.97
2023-03-01T13:02:28.690Z,33.35
2023-03-01T13:05:20.750Z,47.38
2023-03-01T13:08:00.177Z,26.27
2023-03-01T13:11:03.892Z,40.25
2023-03-01T13:13:33.959Z,28.27
2023-03-01T13:16:46.948Z,31.27
2023-03-01T13:21:48.880Z,67.85
2023-03-01T13:24:41.965Z,56.80
2023-03-01T13:27:31.276Z,50.28
2023-03-01T13:30:05.433Z,92.50
2023-03-01T13:32:49.165Z,65.22
2023-03-01T13:35:23.256Z,52.45
2023-03-01T13:37:52.398Z,51.20
2023-03-01T13:40:21.198Z,55.55
2023-03-01T13:43:04.643Z,66.75
2023-03-01T13:45:42.420Z,68.85
2023-03-01T13:48:31.494Z,54.03
2023-03-01T13:51:13.147Z,74.78
2023-03-01T13:53:48.757Z,67.40
2023-03-01T13:56:27.289Z,62.30
2023-03-01T13:58:59.281Z,72.03
2023-03-01T14:01:30.575Z,48.17
2023-03-01T14:04:01.017Z,44.60
2023-03-01T14:06:33.635Z,57.03
2023-03-01T14:11:46.268Z,78.97
2023-03-01T14:14:50.555Z,60.22
2023-03-01T14:17:44.216Z,45.03
2023-03-01T14:20:28.166Z,37.35
2023-03-01T14:23:11.542Z,46.17
2023-03-01T14:25:48.344Z,40.45
2023-03-01T14:28:21.921Z,43.63
2023-03-01T14:30:53.810Z,26.52
2023-03-01T14:33:30.994Z,35.15
2023-03-01T14:36:11.917Z,31.65
2023-03-01T14:38:48.918Z,44.53
2023-03-01T14:41:22.278Z,42.88
2023-03-01T14:43:59.941Z,43.25
2023-03-01T14:46:34.279Z,45.13
2023-03-01T14:49:21.673Z,56.40
2023-03-01T14:52:10.121Z,43.75
2023-03-01T14:54:47.049Z,48.92
2023-03-01T14:57:34.212Z,40.78
2023-03-01T15:00:08.599Z,50.40
2023-03-01T15:02:39.578Z,46.22
2023-03-01T15:05:10.175Z,48.70
2023-03-01T15:07:43.667Z,54.72
2023-03-01T15:10:23.649Z,68.50
2023-03-01T15:12:54.750Z,52.70
2023-03-01T15:15:40.556Z,48.80
2023-03-01T15:18:37.121Z,49.80
2023-03-01T15:21:20.596Z,37.47
2023-03-01T15:23:57.517Z,50.63
2023-03-01T15:26:57.152Z,44.88
2023-03-01T15:29:35.363Z,101.93
2023-03-01T15:32:08.743Z,98.72
2023-03-01T15:34:40.062Z,92.88
2023-03-01T15:37:41.010Z,79.60
2023-03-01T15:40:35.000Z,66.40
2023-03-01T15:43:06.750Z,65.90
2023-03-01T15:45:36.195Z,65.53
2023-03-01T15:48:22.036Z,57.03
2023-03-01T15:51:00.631Z,44.38
2023-03-01T15:53:30.641Z,43.45
2023-03-01T15:55:59.380Z,49.78
2023-03-01T15:58:28.442Z,65.22
2023-03-01T16:01:02.324Z,80.97
2023-03-01T16:03:31.799Z,101.30
2023-03-01T16:06:00.525Z,76.05
2023-03-01T16:08:29.711Z,65.80
2023-03-01T16:10:58.422Z,56.50
2023-03-01T16:13:29.073Z,39.58
2023-03-01T16:15:58.422Z,27.33
2023-03-01T16:18:30.056Z,30.15
2023-03-01T16:20:59.052Z,25.90
2023-03-01T16:23:27.744Z,33.72
2023-03-01T16:26:00.837Z,36.55
2023-03-01T16:28:30.322Z,42.63
2023-03-01T16:30:59.229Z,39.78
2023-03-01T16:33:33.841Z,42.28
2023-03-01T16:36:09.115Z,47.78
2023-03-01T16:38:38.983Z,58.92
2023-03-01T16:41:07.801Z,43.47
2023-03-01T16:43:36.807Z,54.00
2023-03-01T16:46:16.059Z,58.30
2023-03-01T16:48:44.985Z,46.03
2023-03-01T16:51:14.635Z,47.67
2023-03-01T16:53:45.614Z,43.60
2023-03-01T16:56:16.357Z,39.78
2023-03-01T16:58:46.036Z,43.00
2023-03-01T17:01:18.328Z,35.90
2023-03-01T17:03:49.333Z,34.60
2023-03-01T17:06:22.241Z,45.42
2023-03-01T17:08:51.628Z,31.13
2023-03-01T17:11:22.241Z,35.28
2023-03-01T17:13:51.253Z,38.70
2023-03-01T17:16:21.915Z,37.60
2023-03-01T17:18:51.201Z,36.55
2023-03-01T17:21:20.436Z,31.25
2023-03-01T17:23:51.243Z,32.70
2023-03-01T17:26:20.160Z,29.15
2023-03-01T17:28:52.776Z,34.00
2023-03-01T17:31:22.548Z,34.22
2023-03-01T17:33:52.084Z,31.02
2023-03-01T17:36:21.108Z,39.15
2023-03-01T17:38:50.780Z,36.58
2023-03-01T17:41:20.373Z,52.20
2023-03-01T17:43:49.452Z,76.13
2023-03-01T17:46:18.251Z,85.22
2023-03-01T17:48:47.311Z,71.45
2023-03-01T17:51:16.086Z,72.25
2023-03-01T17:53:45.045Z,90.43
2023-03-01T17:56:13.795Z,113.78
2023-03-01T17:58:42.932Z,100.68
2023-03-01T18:01:17.831Z,116.22
2023-03-01T18:03:47.736Z,106.18
2023-03-01T18:06:19.889Z,97.93
2023-03-01T18:08:50.329Z,88.45
2023-03-01T18:11:20.635Z,70.13
2023-03-01T18:13:50.297Z,78.80
2023-03-01T18:16:21.555Z,97.35
2023-03-01T18:18:55.672Z,87.75
2023-03-01T18:21:25.418Z,81.97
2023-03-01T18:23:55.676Z,73.65
2023-03-01T18:26:25.889Z,67.90
2023-03-01T18:28:59.121Z,67.53
2023-03-01T18:31:28.558Z,59.80
2023-03-01T18:33:57.322Z,87.97
2023-03-01T18:36:27.727Z,79.35
2023-03-01T18:38:57.649Z,65.43
2023-03-01T18:41:29.030Z,60.20
2023-03-01T18:43:58.724Z,90.43
2023-03-01T18:46:27.697Z,105.55
2023-03-01T18:48:57.173Z,118.35
2023-03-01T18:51:29.176Z,117.65
2023-03-01T18:53:59.805Z,123.28
2023-03-01T18:56:31.684Z,107.03
2023-03-01T18:59:01.783Z,100.88
2023-03-01T19:01:33.007Z,79.88
2023-03-01T19:04:03.948Z,57.13
2023-03-01T19:06:35.818Z,55.75
2023-03-01T19:09:06.040Z,79.32
2023-03-01T19:11:36.428Z,82.60
2023-03-01T19:14:06.335Z,80.53
2023-03-01T19:16:36.780Z,88.47
2023-03-01T19:19:09.320Z,87.32
2023-03-01T19:24:08.215Z,108.90
2023-03-01T19:26:37.448Z,119.78
2023-03-01T19:29:07.191Z,105.30
2023-03-01T19:31:36.141Z,118.43
2023-03-01T19:34:11.445Z,114.93
2023-03-01T19:36:43.555Z,143.90
2023-03-01T19:39:14.431Z,127.18
2023-03-01T19:41:44.402Z,122.97
2023-03-01T19:44:14.016Z,113.65
2023-03-01T19:46:43.542Z,124.68
2023-03-01T19:49:12.739Z,143.18
2023-03-01T19:51:41.559Z,130.23
2023-03-01T19:54:12.658Z,118.20
2023-03-01T19:56:42.132Z,125.35
2023-03-01T19:59:10.949Z,102.78
2023-03-01T20:01:43.233Z,98.15
2023-03-01T20:04:13.816Z,126.63
2023-03-01T20:06:45.621Z,100.40
2023-03-01T20:09:21.742Z,86.03
2023-03-01T20:11:52.543Z,88.95
2023-03-01T20:14:23.857Z,89.30
2023-03-01T20:16:53.927Z,86.93
2023-03-01T20:19:22.885Z,95.70
2023-03-01T20:21:51.978Z,95.63
2023-03-01T20:24:20.952Z,79.63
2023-03-01T20:26:49.969Z,106.40
2023-03-01T20:29:18.755Z,100.07
2023-03-01T20:31:47.867Z,73.13
2023-03-01T20:34:16.946Z,73.32
2023-03-01T20:36:46.030Z,72.97
2023-03-01T20:39:15.217Z,63.17
2023-03-01T20:41:44.168Z,65.00
2023-03-01T20:44:13.108Z,74.85
2023-03-01T20:46:42.307Z,77.90
2023-03-01T20:49:11.886Z,68.75
2023-03-01T20:51:40.926Z,68.43
2023-03-01T20:54:11.516Z,77.35
2023-03-01T20:56:40.543Z,81.47
2023-03-01T20:59:10.725Z,83.32
2023-03-01T21:01:40.888Z,104.13
2023-03-01T21:04:10.821Z,117.40
2023-03-01T21:06:40.082Z,120.65
2023-03-01T21:09:09.063Z,138.52
2023-03-01T21:11:37.955Z,132.48
2023-03-01T21:14:06.807Z,137.68
2023-03-01T21:16:36.453Z,118.60
2023-03-01T21:19:09.009Z,122.75
2023-03-01T21:21:40.473Z,114.05
2023-03-01T21:24:11.411Z,92.40
2023-03-01T21:26:40.583Z,96.07
2023-03-01T21:29:09.399Z,82.93
2023-03-01T21:31:38.544Z,84.45
2023-03-01T21:34:08.207Z,94.90
2023-03-01T21:36:37.191Z,102.70
2023-03-01T21:39:07.340Z,112.05
2023-03-01T21:41:38.628Z,87.25
2023-03-01T21:44:08.913Z,76.20
2023-03-01T21:46:40.331Z,74.78
2023-03-01T21:49:09.708Z,91.93
2023-03-01T21:51:38.545Z,76.93
2023-03-01T21:54:08.344Z,148.98
2023-03-01T21:56:39.740Z,291.90
2023-03-01T21:59:13.527Z,149.73
2023-03-01T22:01:43.042Z,87.38
2023-03-01T22:04:14.012Z,98.13
2023-03-01T22:06:45.511Z,98.53
2023-03-01T22:09:20.849Z,120.18
2023-03-01T22:11:54.792Z,117.35
2023-03-01T22:14:23.949Z,109.88
2023-03-01T22:16:52.799Z,100.70
2023-03-01T22:19:22.777Z,98.57
2023-03-01T22:21:53.422Z,100.63
2023-03-01T22:24:25.178Z,125.05
2023-03-01T22:26:55.469Z,104.57
2023-03-01T22:29:30.314Z,96.18
2023-03-01T22:32:00.508Z,112.57
2023-03-01T22:34:30.122Z,112.35
2023-03-01T22:36:59.522Z,100.03
2023-03-01T22:39:28.523Z,118.22
2023-03-01T22:41:57.204Z,119.82
2023-03-01T22:44:26.675Z,135.65
2023-03-01T22:46:55.461Z,134.48
2023-03-01T22:49:24.549Z,137.52
2023-03-01T22:51:53.626Z,131.35
2023-03-01T22:54:22.944Z,132.40
2023-03-01T22:56:51.767Z,140.18
2023-03-01T22:59:25.861Z,145.02
2023-03-01T23:01:55.969Z,145.45
2023-03-01T23:04:25.289Z,142.85
2023-03-01T23:06:57.699Z,156.25
2023-03-01T23:09:26.564Z,151.88
2023-03-01T23:11:56.024Z,163.63
2023-03-01T23:14:26.318Z,160.18
2023-03-01T23:16:55.351Z,151.68
2023-03-01T23:19:24.688Z,152.27
2023-03-01T23:21:55.300Z,154.18
2023-03-01T23:24:32.376Z,136.05
2023-03-01T23:27:02.957Z,146.27
2023-03-01T23:29:32.743Z,116.82
2023-03-01T23:32:02.426Z,112.20
2023-03-01T23:34:31.601Z,138.38
2023-03-01T23:37:00.300Z,140.68
2023-03-01T23:39:30.824Z,144.85
2023-03-01T23:42:00.072Z,137.80
2023-03-01T23:44:28.845Z,156.43
2023-03-01T23:46:57.727Z,148.60
2023-03-01T23:49:26.537Z,143.00
2023-03-01T23:51:55.522Z,135.68
2023-03-01T23:54:25.638Z,126.00
2023-03-01T23:56:54.812Z,116.95
2023-03-01T23:59:25.508Z,85.63
